Weather observations for the past three days for
Mercury, Desert Rock Airport
Metric (Imperial)
Date Time (pdt) Wind (kph) Vis. (km) Weather Sky Cond. Temperature (ºC) Relative Humidity Wind Chill (°C) Heat Index (°C) Pressure Precipitation (cm)
Air Dwpt 6 hour altimeter (cm) sea level (mb) 1 hr 3 hr 6 hr
Max. Min.
04 19:53 S 28 G 44 16.09 Fair CLR 17.2 -5 22% 75.64 1005.3
04 18:53 S 31 G 52 16.09 Fair CLR 19.4 -5.6 18% 75.62 1004.8
04 17:53 S 33 G 56 16.09 Fair and Breezy CLR 21.1 -5 17% 75.59 1004.5
04 16:53 SE 33 G 54 16.09 Fair and Breezy CLR 22.2 -3.3 22.2 17.8 18% 75.62 1004.5
04 15:53 S 20 G 50 16.09 Fair CLR 21.7 -2.2 20% 75.62 1004.7
04 14:53 S 37 G 67 16.09 Fair and Breezy CLR 21.7 -2.2 20% 75.64 1005.0
04 13:53 S 43 G 63 16.09 Fair and Windy CLR 22.2 -2.8 19% 75.67 1005.0
04 12:53 S 43 G 67 16.09 Fair and Windy CLR 20.6 -1.1 23% 75.69 1005.6
04 11:53 S 33 G 50 16.09 Fair and Breezy CLR 19.4 2.2 32% 75.74 1006.3
04 10:53 S 35 G 54 16.09 Fair and Breezy CLR 18.3 2.2 18.3 12.8 34% 75.79 1006.8
04 09:53 S 33 G 46 16.09 Fair and Breezy CLR 17.2 2.2 37% 75.79 1006.9
04 08:53 S 31 16.09 Fair CLR 16.1 2.8 41% 75.77 1006.5
04 07:53 SW 20 16.09 Fair CLR 15 2.8 44% 75.77 1006.4
04 06:53 NW 17 16.09 Fair CLR 13.9 1.7 44% 75.72 1005.8
04 05:53 S 19 G 37 16.09 Fair CLR 13.3 1.1 44% 75.69 1005.3
04 04:53 SW 28 G 41 16.09 Fair CLR 13.9 0.6 20 13.9 41% 75.67 1004.7
04 03:53 S 15 16.09 Fair CLR 14.4 -0.6 36% 75.67 1004.6
04 02:53 NW 11 16.09 Fair CLR 15.6 -3.3 27% 75.67 1004.7
04 01:53 SW 28 16.09 Fair CLR 17.2 -2.2 27% 75.62 1003.8
04 00:53 S 24 16.09 Fair CLR 17.8 -0.6 29% 75.64 1004.0
03 23:53 SW 17 16.09 Fair CLR 18.9 0 28% 75.62 1003.9
03 22:53 SE 7 16.09 Fair CLR 19.4 0.6 29.4 18.9 29% 75.59 1003.4
03 21:53 SW 6 16.09 Fair CLR 20.6 0.6 26% 75.62 1003.7
03 20:53 S 17 16.09 Fair CLR 22.8 -2.8 18% 75.54 1003.0
03 19:53 SW 20 G 39 16.09 Fair CLR 23.9 -3.9 15% 24 75.49 1002.2
03 18:53 S 26 16.09 Fair CLR 26.1 -3.3 14% 25 75.46 1002.0
03 17:53 S 37 G 61 16.09 A Few Clouds and Breezy FEW110 27.8 -5.6 11% 26 75.46 1002.3
03 16:53 S 26 G 35 16.09 Fair CLR 28.9 -4.4 30 25.6 11% 27 75.46 1002.3
03 15:53 E 19 16.09 Fair CLR 27.8 -5 11% 26 75.51 1002.8
03 14:53 E 19 G 76 16.09 Partly Cloudy SCT095 SCT120 25.6 -2.2 16% 25 75.62 1004.6
03 13:53 SE 35 G 50 16.09 Fair and Breezy CLR 29.4 -5 10% 28 75.67 1004.6
03 12:53 S 17 G 56 16.09 Fair CLR 28.9 -4.4 11% 27 75.72 1005.4
03 11:53 SE 13 16.09 A Few Clouds FEW120 26.7 -7.2 10% 26 75.79 1006.4
03 10:53 NE 22 G 37 16.09 Fair CLR 27.8 -11.1 27.8 10 7% 26 75.87 1007.0
03 09:53 E 11 16.09 Fair CLR 25.6 -12.8 7% 25 75.9 1007.6
03 08:53 Calm 16.09 Fair CLR 21.1 -12.2 10% 75.95 1008.5
03 07:53 NW 6 16.09 Fair CLR 18.3 -12.2 11% 76 1009.1
03 06:53 Calm 16.09 Fair CLR 14.4 -11.7 15% 75.97 1009.0
03 05:53 Calm 16.09 Fair CLR 11.1 -13.3 17% 75.92 1008.7
03 04:53 NE 7 16.09 Fair CLR 10.6 -13.3 19.4 10.6 17% 75.9 1008.4
03 03:53 NW 7 16.09 Fair CLR 13.3 -12.8 15% 75.95 1008.6
03 02:53 N 9 16.09 Fair CLR 13.3 -13.3 14% 75.92 1008.4
03 01:53 NE 6 16.09 Fair CLR 15 -13.3 13% 75.95 1008.6
03 00:53 Vrbl 6 16.09 Fair CLR 15.6 -12.8 13% 75.97 1008.9
02 23:53 Vrbl 6 16.09 Fair CLR 17.8 -13.3 11% 76 1009.2
02 22:53 NE 11 16.09 Fair CLR 18.3 -13.3 27.8 18.3 10% 76 1009.0
02 21:53 E 13 16.09 Fair CLR 20.6 -13.3 9% 76 1008.9
02 20:53 E 15 16.09 Fair CLR 21.7 -13.3 8% 75.97 1008.7
02 19:53 E 11 16.09 Fair CLR 23.3 -12.2 8% 75.92 1008.1
02 18:53 E 11 G 31 16.09 Fair CLR 26.7 -12.8 6% 26 75.9 1007.7
02 17:53 Calm 16.09 Fair CLR 27.2 -11.1 7% 26 75.9 1008.2
02 16:53 Vrbl 6 16.09 Fair CLR 27.2 -11.1 28.3 24.4 7% 26 75.92 1008.4
02 15:53 SE 17 G 26 16.09 Fair CLR 28.3 -11.1 7% 27 75.97 1008.5
02 14:53 Calm 16.09 Fair CLR 27.2 -11.7 7% 26 76.05 1009.7
02 13:53 Vrbl 7 G 28 16.09 Fair CLR 27.2 -11.1 7% 26 76.1 1010.7
02 12:53 Vrbl 9 16.09 Fair CLR 26.7 -11.7 7% 26 76.17 1011.6
02 11:53 Vrbl 6 16.09 Fair CLR 25.6 -12.2 7% 25 76.25 1012.5
02 10:53 E 19 16.09 Fair CLR 25.6 -11.1 26.1 12.8 8% 25 76.3 1013.2
02 09:53 E 17 16.09 Fair CLR 23.3 -10.6 10% 76.33 1013.9
02 08:53 N 9 16.09 Fair CLR 21.1 -10 11% 76.35 1013.9
02 07:53 NE 7 16.09 Fair CLR 18.9 -11.1 12% 76.33 1013.7
02 06:53 E 9 16.09 Fair CLR 15 -11.7 15% 76.3 1013.8
02 05:53 NE 11 16.09 Fair CLR 12.8 -11.7 17% 76.28 1013.4
02 04:53 NE 7 16.09 Fair CLR 13.9 -12.2 18.9 13.3 15% 76.25 1012.8
02 03:53 NE 17 16.09 Fair CLR 16.7 -12.2 13% 76.25 1012.5
02 02:53 NE 7 16.09 Fair CLR 15.6 -12.2 14% 76.23 1012.3
02 01:53 E 20 16.09 Fair CLR 15 -11.7 15% 76.23 1012.5
02 00:53 NE 13 16.09 Fair CLR 16.1 -11.7 14% 76.25 1012.7
01 23:53 NE 13 16.09 Fair CLR 18.9 -11.1 12% 76.23 1012.1
01 22:53 NE 13 16.09 Fair CLR 17.8 -11.1 26.7 17.8 13% 76.2 1011.9
01 21:53 NE 13 16.09 Fair CLR 18.9 -11.1 12% 76.17 1011.9
01 20:53 N 13 16.09 Fair CLR 21.1 -10.6 11% 76.12 1011.1
Date Time (pdt) Wind (kph) Vis. (km) Weather Sky Cond. Air Dwpt Max. Min. Relative Humidity Wind Chill (°C) Heat Index (°C) altimeter (cm) sea level (mb) 1 hr 3 hr 6 hr
6 hour
Temperature (ºC) Pressure Precipitation (cm)